sensor_id;sensor_type;location;lat;lon;timestamp;P1;durP1;ratioP1;P2;durP2;ratioP2
67721;SDS011;58309;45.292;11.820;2023-07-22T00:00:26;4.75;;;3.63;;
67721;SDS011;58309;45.292;11.820;2023-07-22T00:02:52;4.32;;;3.42;;
67721;SDS011;58309;45.292;11.820;2023-07-22T00:05:17;4.40;;;3.50;;
67721;SDS011;58309;45.292;11.820;2023-07-22T00:07:49;5.80;;;3.35;;
67721;SDS011;58309;45.292;11.820;2023-07-22T00:10:15;4.07;;;3.47;;
67721;SDS011;58309;45.292;11.820;2023-07-22T00:12:41;3.75;;;3.45;;
67721;SDS011;58309;45.292;11.820;2023-07-22T00:15:06;4.68;;;3.60;;
67721;SDS011;58309;45.292;11.820;2023-07-22T00:17:32;5.60;;;3.60;;
67721;SDS011;58309;45.292;11.820;2023-07-22T00:19:58;4.25;;;3.72;;
67721;SDS011;58309;45.292;11.820;2023-07-22T00:22:23;5.75;;;3.67;;
67721;SDS011;58309;45.292;11.820;2023-07-22T00:24:51;3.67;;;3.38;;
67721;SDS011;58309;45.292;11.820;2023-07-22T00:27:17;5.72;;;3.47;;
67721;SDS011;58309;45.292;11.820;2023-07-22T00:29:42;5.05;;;3.33;;
67721;SDS011;58309;45.292;11.820;2023-07-22T00:32:07;7.38;;;4.15;;
67721;SDS011;58309;45.292;11.820;2023-07-22T00:34:33;6.18;;;4.10;;
67721;SDS011;58309;45.292;11.820;2023-07-22T00:36:59;5.22;;;3.92;;
67721;SDS011;58309;45.292;11.820;2023-07-22T00:39:25;4.85;;;3.45;;
67721;SDS011;58309;45.292;11.820;2023-07-22T00:41:50;7.00;;;3.70;;
67721;SDS011;58309;45.292;11.820;2023-07-22T00:44:15;6.13;;;3.90;;
67721;SDS011;58309;45.292;11.820;2023-07-22T00:46:41;5.25;;;3.88;;
67721;SDS011;58309;45.292;11.820;2023-07-22T00:49:07;5.03;;;4.03;;
67721;SDS011;58309;45.292;11.820;2023-07-22T00:51:33;4.22;;;3.75;;
67721;SDS011;58309;45.292;11.820;2023-07-22T00:53:59;5.97;;;4.05;;
67721;SDS011;58309;45.292;11.820;2023-07-22T00:56:24;7.93;;;4.40;;
67721;SDS011;58309;45.292;11.820;2023-07-22T00:58:51;5.72;;;4.30;;
67721;SDS011;58309;45.292;11.820;2023-07-22T01:01:17;4.55;;;3.85;;
67721;SDS011;58309;45.292;11.820;2023-07-22T01:03:42;5.13;;;3.63;;
67721;SDS011;58309;45.292;11.820;2023-07-22T01:06:09;8.45;;;4.78;;
67721;SDS011;58309;45.292;11.820;2023-07-22T01:08:35;5.05;;;4.32;;
67721;SDS011;58309;45.292;11.820;2023-07-22T01:11:00;6.57;;;4.57;;
67721;SDS011;58309;45.292;11.820;2023-07-22T01:13:26;7.45;;;4.82;;
67721;SDS011;58309;45.292;11.820;2023-07-22T01:15:51;7.07;;;4.43;;
67721;SDS011;58309;45.292;11.820;2023-07-22T01:18:17;5.93;;;4.60;;
67721;SDS011;58309;45.292;11.820;2023-07-22T01:20:43;8.23;;;4.60;;
67721;SDS011;58309;45.292;11.820;2023-07-22T01:23:09;6.40;;;4.32;;
67721;SDS011;58309;45.292;11.820;2023-07-22T01:25:36;8.85;;;4.78;;
67721;SDS011;58309;45.292;11.820;2023-07-22T01:28:02;5.68;;;4.38;;
67721;SDS011;58309;45.292;11.820;2023-07-22T01:30:27;9.02;;;4.22;;
67721;SDS011;58309;45.292;11.820;2023-07-22T01:32:53;7.13;;;4.63;;
67721;SDS011;58309;45.292;11.820;2023-07-22T01:35:18;9.18;;;4.55;;
67721;SDS011;58309;45.292;11.820;2023-07-22T01:37:44;9.75;;;4.55;;
67721;SDS011;58309;45.292;11.820;2023-07-22T01:40:10;10.52;;;5.47;;
67721;SDS011;58309;45.292;11.820;2023-07-22T01:42:40;8.73;;;5.13;;
67721;SDS011;58309;45.292;11.820;2023-07-22T01:45:09;6.63;;;4.43;;
67721;SDS011;58309;45.292;11.820;2023-07-22T01:47:35;6.18;;;4.50;;
67721;SDS011;58309;45.292;11.820;2023-07-22T01:50:02;9.27;;;5.03;;
67721;SDS011;58309;45.292;11.820;2023-07-22T01:52:28;6.70;;;4.88;;
67721;SDS011;58309;45.292;11.820;2023-07-22T01:54:54;8.57;;;5.10;;
67721;SDS011;58309;45.292;11.820;2023-07-22T01:57:19;7.05;;;4.65;;
67721;SDS011;58309;45.292;11.820;2023-07-22T01:59:45;6.80;;;5.00;;
67721;SDS011;58309;45.292;11.820;2023-07-22T02:02:10;7.32;;;4.90;;
67721;SDS011;58309;45.292;11.820;2023-07-22T02:04:35;7.32;;;5.47;;
67721;SDS011;58309;45.292;11.820;2023-07-22T02:07:01;9.80;;;5.15;;
67721;SDS011;58309;45.292;11.820;2023-07-22T02:09:26;7.30;;;5.43;;
67721;SDS011;58309;45.292;11.820;2023-07-22T02:11:52;7.35;;;5.30;;
67721;SDS011;58309;45.292;11.820;2023-07-22T02:14:18;8.75;;;5.45;;
67721;SDS011;58309;45.292;11.820;2023-07-22T02:16:44;7.60;;;5.20;;
67721;SDS011;58309;45.292;11.820;2023-07-22T02:19:09;9.90;;;5.60;;
67721;SDS011;58309;45.292;11.820;2023-07-22T02:21:35;6.55;;;5.50;;
67721;SDS011;58309;45.292;11.820;2023-07-22T02:24:00;7.05;;;5.43;;
67721;SDS011;58309;45.292;11.820;2023-07-22T02:26:26;11.63;;;5.97;;
67721;SDS011;58309;45.292;11.820;2023-07-22T02:28:51;10.07;;;5.47;;
67721;SDS011;58309;45.292;11.820;2023-07-22T02:31:16;8.35;;;5.28;;
67721;SDS011;58309;45.292;11.820;2023-07-22T02:33:42;9.02;;;5.07;;
67721;SDS011;58309;45.292;11.820;2023-07-22T02:36:07;8.57;;;5.13;;
67721;SDS011;58309;45.292;11.820;2023-07-22T02:38:33;8.27;;;5.05;;
67721;SDS011;58309;45.292;11.820;2023-07-22T02:41:02;8.80;;;6.45;;
67721;SDS011;58309;45.292;11.820;2023-07-22T02:43:30;8.15;;;6.65;;
67721;SDS011;58309;45.292;11.820;2023-07-22T02:45:56;11.40;;;6.90;;
67721;SDS011;58309;45.292;11.820;2023-07-22T02:48:22;8.90;;;6.90;;
67721;SDS011;58309;45.292;11.820;2023-07-22T02:50:48;13.75;;;7.47;;
67721;SDS011;58309;45.292;11.820;2023-07-22T02:53:13;11.55;;;7.15;;
67721;SDS011;58309;45.292;11.820;2023-07-22T02:55:39;10.13;;;6.68;;
67721;SDS011;58309;45.292;11.820;2023-07-22T02:58:04;12.40;;;7.95;;
67721;SDS011;58309;45.292;11.820;2023-07-22T03:00:30;12.07;;;7.47;;
67721;SDS011;58309;45.292;11.820;2023-07-22T03:02:57;14.07;;;8.30;;
67721;SDS011;58309;45.292;11.820;2023-07-22T03:05:26;17.20;;;8.87;;
67721;SDS011;58309;45.292;11.820;2023-07-22T03:07:55;16.63;;;8.75;;
67721;SDS011;58309;45.292;11.820;2023-07-22T03:10:20;16.23;;;9.65;;
67721;SDS011;58309;45.292;11.820;2023-07-22T03:12:46;16.17;;;10.65;;
67721;SDS011;58309;45.292;11.820;2023-07-22T03:15:12;17.88;;;10.80;;
67721;SDS011;58309;45.292;11.820;2023-07-22T03:17:38;24.25;;;12.80;;
67721;SDS011;58309;45.292;11.820;2023-07-22T03:20:06;19.43;;;10.97;;
67721;SDS011;58309;45.292;11.820;2023-07-22T03:22:39;24.27;;;11.70;;
67721;SDS011;58309;45.292;11.820;2023-07-22T03:25:05;20.95;;;11.15;;
67721;SDS011;58309;45.292;11.820;2023-07-22T03:27:33;23.33;;;11.77;;
67721;SDS011;58309;45.292;11.820;2023-07-22T03:29:58;20.98;;;12.15;;
67721;SDS011;58309;45.292;11.820;2023-07-22T03:32:24;19.65;;;11.18;;
67721;SDS011;58309;45.292;11.820;2023-07-22T03:34:49;20.85;;;12.25;;
67721;SDS011;58309;45.292;11.820;2023-07-22T03:37:15;24.60;;;12.63;;
67721;SDS011;58309;45.292;11.820;2023-07-22T03:39:40;21.98;;;13.57;;
67721;SDS011;58309;45.292;11.820;2023-07-22T03:42:06;27.05;;;14.00;;
67721;SDS011;58309;45.292;11.820;2023-07-22T03:44:31;27.70;;;15.07;;
67721;SDS011;58309;45.292;11.820;2023-07-22T03:46:56;25.52;;;14.07;;
67721;SDS011;58309;45.292;11.820;2023-07-22T03:49:22;28.23;;;16.38;;
67721;SDS011;58309;45.292;11.820;2023-07-22T03:51:48;29.45;;;16.02;;
67721;SDS011;58309;45.292;11.820;2023-07-22T03:54:13;25.48;;;15.18;;
67721;SDS011;58309;45.292;11.820;2023-07-22T03:56:40;29.52;;;15.30;;
67721;SDS011;58309;45.292;11.820;2023-07-22T03:59:06;24.95;;;15.00;;
67721;SDS011;58309;45.292;11.820;2023-07-22T04:01:32;26.45;;;15.05;;
67721;SDS011;58309;45.292;11.820;2023-07-22T04:03:58;24.48;;;14.80;;
67721;SDS011;58309;45.292;11.820;2023-07-22T04:06:23;27.27;;;15.32;;
67721;SDS011;58309;45.292;11.820;2023-07-22T04:08:49;24.05;;;15.25;;
67721;SDS011;58309;45.292;11.820;2023-07-22T04:11:14;23.60;;;14.02;;
67721;SDS011;58309;45.292;11.820;2023-07-22T04:13:39;22.40;;;13.38;;
67721;SDS011;58309;45.292;11.820;2023-07-22T04:16:05;22.98;;;13.30;;
67721;SDS011;58309;45.292;11.820;2023-07-22T04:18:30;20.67;;;12.63;;
67721;SDS011;58309;45.292;11.820;2023-07-22T04:20:59;18.02;;;12.98;;
67721;SDS011;58309;45.292;11.820;2023-07-22T04:23:25;20.02;;;12.38;;
67721;SDS011;58309;45.292;11.820;2023-07-22T04:25:51;19.80;;;12.55;;
67721;SDS011;58309;45.292;11.820;2023-07-22T04:28:17;16.90;;;11.73;;
67721;SDS011;58309;45.292;11.820;2023-07-22T04:30:42;18.83;;;12.25;;
67721;SDS011;58309;45.292;11.820;2023-07-22T04:33:08;18.88;;;12.07;;
67721;SDS011;58309;45.292;11.820;2023-07-22T04:35:40;18.63;;;10.95;;
67721;SDS011;58309;45.292;11.820;2023-07-22T04:38:06;17.38;;;10.77;;
67721;SDS011;58309;45.292;11.820;2023-07-22T04:40:31;15.85;;;10.75;;
67721;SDS011;58309;45.292;11.820;2023-07-22T04:42:57;13.98;;;9.27;;
67721;SDS011;58309;45.292;11.820;2023-07-22T04:45:22;13.50;;;9.43;;
67721;SDS011;58309;45.292;11.820;2023-07-22T04:47:51;14.18;;;9.27;;
67721;SDS011;58309;45.292;11.820;2023-07-22T04:50:17;15.23;;;9.32;;
67721;SDS011;58309;45.292;11.820;2023-07-22T04:52:45;12.10;;;8.88;;
67721;SDS011;58309;45.292;11.820;2023-07-22T04:55:11;12.77;;;8.80;;
67721;SDS011;58309;45.292;11.820;2023-07-22T04:57:37;12.55;;;8.73;;
67721;SDS011;58309;45.292;11.820;2023-07-22T05:00:05;14.40;;;8.50;;
67721;SDS011;58309;45.292;11.820;2023-07-22T05:02:39;13.32;;;8.77;;
67721;SDS011;58309;45.292;11.820;2023-07-22T05:05:04;12.43;;;8.48;;
67721;SDS011;58309;45.292;11.820;2023-07-22T05:07:30;9.80;;;7.90;;
67721;SDS011;58309;45.292;11.820;2023-07-22T05:09:55;9.40;;;7.10;;
67721;SDS011;58309;45.292;11.820;2023-07-22T05:12:21;9.90;;;6.60;;
67721;SDS011;58309;45.292;11.820;2023-07-22T05:14:46;9.02;;;6.43;;
67721;SDS011;58309;45.292;11.820;2023-07-22T05:17:13;9.88;;;6.70;;
67721;SDS011;58309;45.292;11.820;2023-07-22T05:19:39;10.40;;;6.38;;
67721;SDS011;58309;45.292;11.820;2023-07-22T05:22:05;7.82;;;6.50;;
67721;SDS011;58309;45.292;11.820;2023-07-22T05:24:30;7.88;;;6.15;;
67721;SDS011;58309;45.292;11.820;2023-07-22T05:26:56;9.85;;;5.88;;
67721;SDS011;58309;45.292;11.820;2023-07-22T05:29:21;8.35;;;5.80;;
67721;SDS011;58309;45.292;11.820;2023-07-22T05:31:46;7.32;;;5.05;;
67721;SDS011;58309;45.292;11.820;2023-07-22T05:34:12;5.80;;;5.00;;
67721;SDS011;58309;45.292;11.820;2023-07-22T05:36:37;6.75;;;4.70;;
67721;SDS011;58309;45.292;11.820;2023-07-22T05:39:03;8.10;;;4.45;;
67721;SDS011;58309;45.292;11.820;2023-07-22T05:41:29;6.60;;;4.38;;
67721;SDS011;58309;45.292;11.820;2023-07-22T05:43:55;4.85;;;4.10;;
67721;SDS011;58309;45.292;11.820;2023-07-22T05:46:20;6.68;;;4.70;;
67721;SDS011;58309;45.292;11.820;2023-07-22T05:48:45;6.15;;;4.60;;
67721;SDS011;58309;45.292;11.820;2023-07-22T05:51:11;6.18;;;4.47;;
67721;SDS011;58309;45.292;11.820;2023-07-22T05:53:36;5.50;;;4.47;;
67721;SDS011;58309;45.292;11.820;2023-07-22T05:56:02;4.35;;;3.92;;
67721;SDS011;58309;45.292;11.820;2023-07-22T05:58:30;5.78;;;4.50;;
67721;SDS011;58309;45.292;11.820;2023-07-22T06:00:55;6.95;;;4.53;;
67721;SDS011;58309;45.292;11.820;2023-07-22T06:03:21;9.40;;;4.32;;
67721;SDS011;58309;45.292;11.820;2023-07-22T06:05:47;5.15;;;4.65;;
67721;SDS011;58309;45.292;11.820;2023-07-22T06:08:12;7.70;;;4.45;;
67721;SDS011;58309;45.292;11.820;2023-07-22T06:10:39;4.47;;;3.80;;
67721;SDS011;58309;45.292;11.820;2023-07-22T06:13:05;7.13;;;4.60;;
67721;SDS011;58309;45.292;11.820;2023-07-22T06:15:31;5.72;;;4.50;;
67721;SDS011;58309;45.292;11.820;2023-07-22T06:17:56;6.68;;;4.03;;
67721;SDS011;58309;45.292;11.820;2023-07-22T06:20:22;5.47;;;3.80;;
67721;SDS011;58309;45.292;11.820;2023-07-22T06:22:47;3.92;;;3.53;;
67721;SDS011;58309;45.292;11.820;2023-07-22T06:25:13;5.68;;;3.70;;
67721;SDS011;58309;45.292;11.820;2023-07-22T06:27:38;5.85;;;3.53;;
67721;SDS011;58309;45.292;11.820;2023-07-22T06:30:03;4.03;;;3.28;;
67721;SDS011;58309;45.292;11.820;2023-07-22T06:32:30;5.38;;;3.70;;
67721;SDS011;58309;45.292;11.820;2023-07-22T06:34:59;7.20;;;3.80;;
67721;SDS011;58309;45.292;11.820;2023-07-22T06:37:24;4.57;;;3.70;;
67721;SDS011;58309;45.292;11.820;2023-07-22T06:39:51;4.25;;;3.60;;
67721;SDS011;58309;45.292;11.820;2023-07-22T06:42:16;3.55;;;3.20;;
67721;SDS011;58309;45.292;11.820;2023-07-22T06:44:42;7.85;;;3.72;;
67721;SDS011;58309;45.292;11.820;2023-07-22T06:47:08;4.88;;;3.35;;
67721;SDS011;58309;45.292;11.820;2023-07-22T06:49:33;3.83;;;3.25;;
67721;SDS011;58309;45.292;11.820;2023-07-22T06:51:59;9.73;;;3.38;;
67721;SDS011;58309;45.292;11.820;2023-07-22T06:54:24;5.95;;;3.58;;
67721;SDS011;58309;45.292;11.820;2023-07-22T06:56:50;5.60;;;3.47;;
67721;SDS011;58309;45.292;11.820;2023-07-22T06:59:16;4.57;;;3.63;;
67721;SDS011;58309;45.292;11.820;2023-07-22T07:01:41;4.05;;;3.40;;
67721;SDS011;58309;45.292;11.820;2023-07-22T07:04:07;6.13;;;3.50;;
67721;SDS011;58309;45.292;11.820;2023-07-22T07:06:32;7.03;;;3.10;;
67721;SDS011;58309;45.292;11.820;2023-07-22T07:09:00;3.83;;;3.30;;
67721;SDS011;58309;45.292;11.820;2023-07-22T07:11:27;5.43;;;3.50;;
67721;SDS011;58309;45.292;11.820;2023-07-22T07:13:53;4.35;;;3.17;;
67721;SDS011;58309;45.292;11.820;2023-07-22T07:16:25;5.22;;;3.28;;
67721;SDS011;58309;45.292;11.820;2023-07-22T07:18:52;5.30;;;3.17;;
67721;SDS011;58309;45.292;11.820;2023-07-22T07:21:19;9.10;;;3.40;;
67721;SDS011;58309;45.292;11.820;2023-07-22T07:23:45;5.97;;;3.55;;
67721;SDS011;58309;45.292;11.820;2023-07-22T07:26:11;9.25;;;3.50;;
67721;SDS011;58309;45.292;11.820;2023-07-22T07:28:36;3.75;;;3.35;;
67721;SDS011;58309;45.292;11.820;2023-07-22T07:31:02;7.55;;;3.50;;
67721;SDS011;58309;45.292;11.820;2023-07-22T07:33:28;3.80;;;3.40;;
67721;SDS011;58309;45.292;11.820;2023-07-22T07:35:54;6.45;;;3.58;;
67721;SDS011;58309;45.292;11.820;2023-07-22T07:38:20;4.93;;;3.13;;
67721;SDS011;58309;45.292;11.820;2023-07-22T07:40:45;4.32;;;3.00;;
67721;SDS011;58309;45.292;11.820;2023-07-22T07:43:11;8.10;;;3.35;;
67721;SDS011;58309;45.292;11.820;2023-07-22T07:45:38;5.05;;;3.20;;
67721;SDS011;58309;45.292;11.820;2023-07-22T07:48:04;5.63;;;3.00;;
67721;SDS011;58309;45.292;11.820;2023-07-22T07:50:30;5.25;;;3.20;;
67721;SDS011;58309;45.292;11.820;2023-07-22T07:52:56;4.03;;;3.05;;
67721;SDS011;58309;45.292;11.820;2023-07-22T07:55:21;6.78;;;3.20;;
67721;SDS011;58309;45.292;11.820;2023-07-22T07:57:46;5.10;;;2.92;;
67721;SDS011;58309;45.292;11.820;2023-07-22T08:00:12;3.97;;;3.00;;
67721;SDS011;58309;45.292;11.820;2023-07-22T08:02:38;3.17;;;2.70;;
67721;SDS011;58309;45.292;11.820;2023-07-22T08:05:03;3.70;;;2.88;;
67721;SDS011;58309;45.292;11.820;2023-07-22T08:07:30;2.80;;;2.55;;
67721;SDS011;58309;45.292;11.820;2023-07-22T08:09:56;4.50;;;2.70;;
67721;SDS011;58309;45.292;11.820;2023-07-22T08:12:23;3.50;;;2.70;;
67721;SDS011;58309;45.292;11.820;2023-07-22T08:14:48;3.72;;;2.60;;
67721;SDS011;58309;45.292;11.820;2023-07-22T08:17:14;3.58;;;2.28;;
67721;SDS011;58309;45.292;11.820;2023-07-22T08:19:39;4.75;;;2.50;;
67721;SDS011;58309;45.292;11.820;2023-07-22T08:22:05;3.15;;;2.53;;
67721;SDS011;58309;45.292;11.820;2023-07-22T08:24:31;3.10;;;2.40;;
67721;SDS011;58309;45.292;11.820;2023-07-22T08:26:57;5.05;;;2.50;;
67721;SDS011;58309;45.292;11.820;2023-07-22T08:29:23;4.57;;;2.53;;
67721;SDS011;58309;45.292;11.820;2023-07-22T08:31:49;6.32;;;2.50;;
67721;SDS011;58309;45.292;11.820;2023-07-22T08:34:15;2.30;;;2.10;;
67721;SDS011;58309;45.292;11.820;2023-07-22T08:36:41;3.67;;;2.55;;
67721;SDS011;58309;45.292;11.820;2023-07-22T08:39:06;7.22;;;2.65;;
67721;SDS011;58309;45.292;11.820;2023-07-22T08:41:32;4.15;;;2.60;;
67721;SDS011;58309;45.292;11.820;2023-07-22T08:43:59;5.68;;;2.58;;
67721;SDS011;58309;45.292;11.820;2023-07-22T08:46:28;3.10;;;2.40;;
67721;SDS011;58309;45.292;11.820;2023-07-22T08:48:56;4.15;;;2.92;;
67721;SDS011;58309;45.292;11.820;2023-07-22T08:51:25;4.28;;;2.40;;
67721;SDS011;58309;45.292;11.820;2023-07-22T08:53:53;6.27;;;2.40;;
67721;SDS011;58309;45.292;11.820;2023-07-22T08:56:23;2.72;;;2.40;;
67721;SDS011;58309;45.292;11.820;2023-07-22T08:58:50;5.90;;;2.58;;
67721;SDS011;58309;45.292;11.820;2023-07-22T09:01:17;2.40;;;2.20;;
67721;SDS011;58309;45.292;11.820;2023-07-22T09:03:43;3.25;;;2.40;;
67721;SDS011;58309;45.292;11.820;2023-07-22T09:06:09;2.40;;;2.20;;
67721;SDS011;58309;45.292;11.820;2023-07-22T09:08:35;2.50;;;2.30;;
67721;SDS011;58309;45.292;11.820;2023-07-22T09:11:01;3.33;;;2.40;;
67721;SDS011;58309;45.292;11.820;2023-07-22T09:13:27;3.33;;;2.00;;
67721;SDS011;58309;45.292;11.820;2023-07-22T09:15:53;4.10;;;2.35;;
67721;SDS011;58309;45.292;11.820;2023-07-22T09:18:21;5.32;;;2.45;;
67721;SDS011;58309;45.292;11.820;2023-07-22T09:20:47;2.80;;;2.38;;
67721;SDS011;58309;45.292;11.820;2023-07-22T09:23:13;3.42;;;2.50;;
67721;SDS011;58309;45.292;11.820;2023-07-22T09:25:40;5.32;;;2.75;;
67721;SDS011;58309;45.292;11.820;2023-07-22T09:28:07;2.53;;;2.25;;
67721;SDS011;58309;45.292;11.820;2023-07-22T09:30:35;3.53;;;2.45;;
67721;SDS011;58309;45.292;11.820;2023-07-22T09:33:03;2.60;;;2.40;;
67721;SDS011;58309;45.292;11.820;2023-07-22T09:35:50;3.22;;;2.50;;
67721;SDS011;58309;45.292;11.820;2023-07-22T09:38:22;3.22;;;2.17;;
67721;SDS011;58309;45.292;11.820;2023-07-22T09:40:49;2.70;;;2.50;;
67721;SDS011;58309;45.292;11.820;2023-07-22T09:43:14;5.68;;;2.72;;
67721;SDS011;58309;45.292;11.820;2023-07-22T09:45:40;3.15;;;2.40;;
67721;SDS011;58309;45.292;11.820;2023-07-22T09:48:05;3.78;;;2.35;;
67721;SDS011;58309;45.292;11.820;2023-07-22T09:50:34;3.28;;;2.50;;
67721;SDS011;58309;45.292;11.820;2023-07-22T09:53:01;3.95;;;2.50;;
67721;SDS011;58309;45.292;11.820;2023-07-22T09:55:29;4.25;;;2.75;;
67721;SDS011;58309;45.292;11.820;2023-07-22T09:57:57;6.53;;;2.50;;
67721;SDS011;58309;45.292;11.820;2023-07-22T10:00:24;5.85;;;2.70;;
67721;SDS011;58309;45.292;11.820;2023-07-22T10:02:52;3.95;;;2.70;;
67721;SDS011;58309;45.292;11.820;2023-07-22T10:05:21;3.13;;;2.83;;
67721;SDS011;58309;45.292;11.820;2023-07-22T10:07:51;3.13;;;2.75;;
67721;SDS011;58309;45.292;11.820;2023-07-22T10:10:21;3.40;;;2.70;;
67721;SDS011;58309;45.292;11.820;2023-07-22T10:12:50;5.72;;;2.85;;
67721;SDS011;58309;45.292;11.820;2023-07-22T10:15:16;6.28;;;2.97;;
67721;SDS011;58309;45.292;11.820;2023-07-22T10:20:11;9.95;;;3.10;;
67721;SDS011;58309;45.292;11.820;2023-07-22T10:22:44;3.30;;;2.60;;
67721;SDS011;58309;45.292;11.820;2023-07-22T10:25:10;3.88;;;3.05;;
67721;SDS011;58309;45.292;11.820;2023-07-22T10:27:37;7.70;;;3.10;;
67721;SDS011;58309;45.292;11.820;2023-07-22T10:30:07;4.32;;;2.65;;
67721;SDS011;58309;45.292;11.820;2023-07-22T10:32:35;2.50;;;2.30;;
67721;SDS011;58309;45.292;11.820;2023-07-22T10:35:01;3.92;;;2.58;;
67721;SDS011;58309;45.292;11.820;2023-07-22T10:40:00;3.50;;;2.67;;
67721;SDS011;58309;45.292;11.820;2023-07-22T10:42:41;3.85;;;2.42;;
67721;SDS011;58309;45.292;11.820;2023-07-22T10:45:22;4.95;;;2.90;;
67721;SDS011;58309;45.292;11.820;2023-07-22T10:47:59;3.53;;;2.50;;
67721;SDS011;58309;45.292;11.820;2023-07-22T10:50:26;3.67;;;2.42;;
67721;SDS011;58309;45.292;11.820;2023-07-22T10:53:04;3.58;;;2.60;;
67721;SDS011;58309;45.292;11.820;2023-07-22T10:55:29;4.85;;;2.40;;
67721;SDS011;58309;45.292;11.820;2023-07-22T10:57:55;2.60;;;2.40;;
67721;SDS011;58309;45.292;11.820;2023-07-22T11:00:30;3.30;;;2.22;;
67721;SDS011;58309;45.292;11.820;2023-07-22T11:03:08;3.00;;;2.33;;
67721;SDS011;58309;45.292;11.820;2023-07-22T11:05:48;3.92;;;2.55;;
67721;SDS011;58309;45.292;11.820;2023-07-22T11:08:16;3.22;;;2.70;;
67721;SDS011;58309;45.292;11.820;2023-07-22T11:10:54;3.75;;;2.38;;
67721;SDS011;58309;45.292;11.820;2023-07-22T11:13:28;5.57;;;2.83;;
67721;SDS011;58309;45.292;11.820;2023-07-22T11:15:57;3.55;;;2.80;;
67721;SDS011;58309;45.292;11.820;2023-07-22T11:18:36;4.43;;;2.60;;
67721;SDS011;58309;45.292;11.820;2023-07-22T11:21:06;4.75;;;2.80;;
67721;SDS011;58309;45.292;11.820;2023-07-22T11:23:34;4.28;;;2.78;;
67721;SDS011;58309;45.292;11.820;2023-07-22T11:26:00;4.60;;;2.78;;
67721;SDS011;58309;45.292;11.820;2023-07-22T11:28:27;2.92;;;2.70;;
67721;SDS011;58309;45.292;11.820;2023-07-22T11:30:52;3.72;;;2.70;;
67721;SDS011;58309;45.292;11.820;2023-07-22T11:33:18;4.10;;;2.60;;
67721;SDS011;58309;45.292;11.820;2023-07-22T11:35:44;3.58;;;2.50;;
67721;SDS011;58309;45.292;11.820;2023-07-22T11:38:11;4.78;;;2.67;;
67721;SDS011;58309;45.292;11.820;2023-07-22T11:40:37;6.20;;;2.85;;
67721;SDS011;58309;45.292;11.820;2023-07-22T11:43:03;3.38;;;2.63;;
67721;SDS011;58309;45.292;11.820;2023-07-22T11:45:28;7.85;;;2.65;;
67721;SDS011;58309;45.292;11.820;2023-07-22T11:47:55;2.80;;;2.60;;
67721;SDS011;58309;45.292;11.820;2023-07-22T11:50:30;2.53;;;2.30;;
67721;SDS011;58309;45.292;11.820;2023-07-22T11:52:59;5.45;;;2.20;;
67721;SDS011;58309;45.292;11.820;2023-07-22T11:55:24;4.32;;;2.10;;
67721;SDS011;58309;45.292;11.820;2023-07-22T11:57:53;4.07;;;2.42;;
67721;SDS011;58309;45.292;11.820;2023-07-22T12:02:46;2.50;;;2.30;;
67721;SDS011;58309;45.292;11.820;2023-07-22T12:05:12;4.22;;;2.30;;
67721;SDS011;58309;45.292;11.820;2023-07-22T12:07:45;6.30;;;2.40;;
67721;SDS011;58309;45.292;11.820;2023-07-22T12:10:10;2.38;;;2.17;;
67721;SDS011;58309;45.292;11.820;2023-07-22T12:12:43;4.10;;;2.50;;
67721;SDS011;58309;45.292;11.820;2023-07-22T12:15:18;3.67;;;2.40;;
67721;SDS011;58309;45.292;11.820;2023-07-22T12:20:17;5.45;;;2.60;;
67721;SDS011;58309;45.292;11.820;2023-07-22T12:22:43;2.55;;;2.30;;
67721;SDS011;58309;45.292;11.820;2023-07-22T12:25:09;2.22;;;2.00;;
67721;SDS011;58309;45.292;11.820;2023-07-22T12:27:35;3.08;;;1.92;;
67721;SDS011;58309;45.292;11.820;2023-07-22T12:30:01;2.15;;;1.98;;
67721;SDS011;58309;45.292;11.820;2023-07-22T12:32:28;2.88;;;1.70;;
67721;SDS011;58309;45.292;11.820;2023-07-22T12:34:53;2.67;;;2.00;;
67721;SDS011;58309;45.292;11.820;2023-07-22T12:37:19;4.70;;;2.13;;
67721;SDS011;58309;45.292;11.820;2023-07-22T12:39:44;3.33;;;2.20;;
67721;SDS011;58309;45.292;11.820;2023-07-22T12:42:10;3.05;;;2.10;;
67721;SDS011;58309;45.292;11.820;2023-07-22T12:44:35;3.13;;;1.95;;
67721;SDS011;58309;45.292;11.820;2023-07-22T12:47:01;2.88;;;2.22;;
67721;SDS011;58309;45.292;11.820;2023-07-22T12:49:27;3.63;;;2.65;;
67721;SDS011;58309;45.292;11.820;2023-07-22T12:51:52;4.65;;;2.40;;
67721;SDS011;58309;45.292;11.820;2023-07-22T12:54:18;2.85;;;2.55;;
67721;SDS011;58309;45.292;11.820;2023-07-22T12:56:43;4.82;;;2.67;;
67721;SDS011;58309;45.292;11.820;2023-07-22T12:59:08;2.58;;;2.17;;
67721;SDS011;58309;45.292;11.820;2023-07-22T13:01:34;3.15;;;2.55;;
67721;SDS011;58309;45.292;11.820;2023-07-22T13:04:03;3.22;;;2.30;;
67721;SDS011;58309;45.292;11.820;2023-07-22T13:06:29;3.00;;;2.33;;
67721;SDS011;58309;45.292;11.820;2023-07-22T13:08:54;4.38;;;2.78;;
67721;SDS011;58309;45.292;11.820;2023-07-22T13:11:20;2.63;;;2.38;;
67721;SDS011;58309;45.292;11.820;2023-07-22T13:13:45;3.97;;;2.60;;
67721;SDS011;58309;45.292;11.820;2023-07-22T13:16:11;3.92;;;2.42;;
67721;SDS011;58309;45.292;11.820;2023-07-22T13:18:36;3.80;;;2.30;;
67721;SDS011;58309;45.292;11.820;2023-07-22T13:21:02;2.30;;;2.10;;
67721;SDS011;58309;45.292;11.820;2023-07-22T13:23:27;2.72;;;2.33;;
67721;SDS011;58309;45.292;11.820;2023-07-22T13:25:53;2.55;;;2.10;;
67721;SDS011;58309;45.292;11.820;2023-07-22T13:28:18;2.30;;;2.10;;
67721;SDS011;58309;45.292;11.820;2023-07-22T13:30:44;2.28;;;2.03;;
67721;SDS011;58309;45.292;11.820;2023-07-22T13:33:09;3.10;;;2.38;;
67721;SDS011;58309;45.292;11.820;2023-07-22T13:35:34;3.10;;;2.60;;
67721;SDS011;58309;45.292;11.820;2023-07-22T13:38:00;3.92;;;2.05;;
67721;SDS011;58309;45.292;11.820;2023-07-22T13:40:25;2.60;;;2.40;;
67721;SDS011;58309;45.292;11.820;2023-07-22T13:42:51;2.67;;;2.42;;
67721;SDS011;58309;45.292;11.820;2023-07-22T13:45:16;4.10;;;2.10;;
67721;SDS011;58309;45.292;11.820;2023-07-22T13:47:42;2.50;;;2.30;;
67721;SDS011;58309;45.292;11.820;2023-07-22T13:50:07;2.30;;;2.15;;
67721;SDS011;58309;45.292;11.820;2023-07-22T13:52:33;4.60;;;2.53;;
67721;SDS011;58309;45.292;11.820;2023-07-22T13:54:59;3.85;;;2.60;;
67721;SDS011;58309;45.292;11.820;2023-07-22T13:57:24;2.97;;;2.60;;
67721;SDS011;58309;45.292;11.820;2023-07-22T13:59:49;3.33;;;2.58;;
67721;SDS011;58309;45.292;11.820;2023-07-22T14:02:15;3.03;;;2.55;;
67721;SDS011;58309;45.292;11.820;2023-07-22T14:04:41;3.67;;;2.83;;
67721;SDS011;58309;45.292;11.820;2023-07-22T14:07:06;2.95;;;2.22;;
67721;SDS011;58309;45.292;11.820;2023-07-22T14:09:32;2.60;;;2.40;;
67721;SDS011;58309;45.292;11.820;2023-07-22T14:11:57;3.85;;;2.60;;
67721;SDS011;58309;45.292;11.820;2023-07-22T14:14:22;3.63;;;2.63;;
67721;SDS011;58309;45.292;11.820;2023-07-22T14:16:53;2.70;;;2.40;;
67721;SDS011;58309;45.292;11.820;2023-07-22T14:19:20;2.50;;;2.30;;
67721;SDS011;58309;45.292;11.820;2023-07-22T14:21:46;3.20;;;2.88;;
67721;SDS011;58309;45.292;11.820;2023-07-22T14:24:11;4.05;;;2.50;;
67721;SDS011;58309;45.292;11.820;2023-07-22T14:26:37;2.92;;;2.63;;
67721;SDS011;58309;45.292;11.820;2023-07-22T14:29:02;4.07;;;2.95;;
67721;SDS011;58309;45.292;11.820;2023-07-22T14:31:28;3.08;;;2.67;;
67721;SDS011;58309;45.292;11.820;2023-07-22T14:33:53;5.00;;;2.55;;
67721;SDS011;58309;45.292;11.820;2023-07-22T14:36:19;3.47;;;2.55;;